createdAt,value
2018-07-04T21:00:03.166Z,24.29
2018-07-04T21:03:26.988Z,24.38
2018-07-04T21:06:07.760Z,24.34
2018-07-04T21:08:47.663Z,24.31
2018-07-04T21:11:28.390Z,24.30
2018-07-04T21:14:08.323Z,24.33
2018-07-04T21:16:48.214Z,24.33
2018-07-04T21:19:28.313Z,24.31
2018-07-04T21:22:08.311Z,24.31
2018-07-04T21:24:48.327Z,24.35
2018-07-04T21:27:28.611Z,24.34
2018-07-04T21:30:08.647Z,24.33
2018-07-04T21:32:49.119Z,24.35
2018-07-04T21:35:29.854Z,24.35
2018-07-04T21:38:10.286Z,24.34
2018-07-04T21:40:50.182Z,24.32
2018-07-04T21:43:30.454Z,24.32
2018-07-04T21:46:11.208Z,24.28
2018-07-04T21:48:51.569Z,24.27
2018-07-04T21:51:32.097Z,24.31
2018-07-04T21:54:12.315Z,24.29
2018-07-04T21:56:52.539Z,24.30
2018-07-04T21:59:32.638Z,24.31
2018-07-04T22:02:12.550Z,24.22
2018-07-04T22:04:52.784Z,24.19
2018-07-04T22:07:33.512Z,24.23
2018-07-04T22:10:13.652Z,24.20
2018-07-04T22:12:53.574Z,24.10
2018-07-04T22:15:33.790Z,24.12
2018-07-04T22:18:13.923Z,24.16
2018-07-04T22:20:53.982Z,24.13
2018-07-04T22:23:34.014Z,24.07
2018-07-04T22:26:15.201Z,23.98
2018-07-04T22:28:55.342Z,23.93
2018-07-04T22:31:36.778Z,23.91
2018-07-04T22:34:16.992Z,23.90
2018-07-04T22:36:57.257Z,23.88
2018-07-04T22:39:37.726Z,23.85
2018-07-04T22:42:18.731Z,23.83
2018-07-04T22:45:00.388Z,23.81
2018-07-04T22:47:40.860Z,23.78
2018-07-04T22:50:20.790Z,23.78
2018-07-04T22:53:01.332Z,23.76
2018-07-04T22:55:41.198Z,23.76
2018-07-04T22:58:21.588Z,23.74
2018-07-04T23:01:01.829Z,23.73
2018-07-04T23:03:42.504Z,23.71
2018-07-04T23:06:22.459Z,23.70
2018-07-04T23:09:02.690Z,23.68
2018-07-04T23:11:42.853Z,23.67
2018-07-04T23:14:23.140Z,23.65
2018-07-04T23:17:03.212Z,23.63
2018-07-04T23:19:43.850Z,23.64
2018-07-04T23:22:23.703Z,23.62
2018-07-04T23:25:03.619Z,23.60
2018-07-04T23:27:43.904Z,23.59
2018-07-04T23:30:24.156Z,23.56
2018-07-04T23:33:04.108Z,23.56
2018-07-04T23:35:44.421Z,23.57
2018-07-04T23:38:24.418Z,23.55
2018-07-04T23:41:04.790Z,23.53
2018-07-04T23:43:44.877Z,23.55
2018-07-04T23:46:26.110Z,23.52
2018-07-04T23:49:06.165Z,23.49
2018-07-04T23:51:46.519Z,23.51
2018-07-04T23:54:26.441Z,23.49
2018-07-04T23:57:06.885Z,23.58
2018-07-04T23:59:47.068Z,23.55
